createdAt,value
2023-04-27T00:00:39.281Z,7.82
2023-04-27T00:02:40.963Z,7.72
2023-04-27T00:04:42.669Z,7.64
2023-04-27T00:06:44.303Z,7.66
2023-04-27T00:08:45.915Z,7.63
2023-04-27T00:10:48.782Z,7.66
2023-04-27T00:12:50.235Z,7.68
2023-04-27T00:14:51.800Z,7.69
2023-04-27T00:16:53.337Z,7.68
2023-04-27T00:18:54.852Z,7.72
2023-04-27T00:20:56.408Z,7.67
2023-04-27T00:22:57.900Z,7.65
2023-04-27T00:24:59.363Z,7.63
2023-04-27T00:27:02.190Z,7.58
2023-04-27T00:29:03.659Z,7.57
2023-04-27T00:31:05.389Z,7.53
2023-04-27T00:33:06.978Z,7.54
2023-04-27T00:35:09.610Z,7.54
2023-04-27T00:37:11.080Z,7.46
2023-04-27T00:39:12.713Z,7.45
2023-04-27T00:41:14.504Z,7.39
2023-04-27T00:43:17.333Z,7.43
2023-04-27T00:45:18.885Z,7.37
2023-04-27T00:47:20.360Z,7.35
2023-04-27T00:49:22.293Z,7.36
2023-04-27T00:51:23.802Z,7.35
2023-04-27T00:53:25.464Z,7.37
2023-04-27T00:55:26.977Z,7.40
2023-04-27T00:57:28.466Z,7.40
2023-04-27T00:59:31.458Z,7.34
2023-04-27T01:01:33.293Z,7.27
2023-04-27T01:03:35.163Z,7.23
2023-04-27T01:05:37.386Z,7.22
2023-04-27T01:07:39.225Z,7.26
2023-04-27T01:09:40.757Z,7.26
2023-04-27T01:11:42.270Z,7.23
2023-04-27T01:13:43.925Z,7.27
2023-04-27T01:15:46.804Z,7.27
2023-04-27T01:17:48.362Z,7.32
2023-04-27T01:19:50.059Z,7.30
2023-04-27T01:21:51.588Z,7.28
2023-04-27T01:23:54.622Z,7.28
2023-04-27T01:25:56.092Z,7.24
2023-04-27T01:27:57.569Z,7.28
2023-04-27T01:29:59.033Z,7.31
2023-04-27T01:32:00.679Z,7.31
2023-04-27T01:34:02.166Z,7.18
2023-04-27T01:36:04.070Z,7.31
2023-04-27T01:38:05.645Z,7.36
2023-04-27T01:40:09.496Z,7.34
2023-04-27T01:42:11.083Z,7.32
2023-04-27T01:44:12.812Z,7.27
2023-04-27T01:46:14.643Z,7.27
2023-04-27T01:48:16.991Z,7.25
2023-04-27T01:50:18.700Z,7.25
2023-04-27T01:52:20.167Z,7.19
2023-04-27T01:54:21.981Z,7.22
2023-04-27T01:56:24.855Z,7.18
2023-04-27T01:58:26.697Z,7.14
2023-04-27T02:00:28.325Z,7.17
2023-04-27T02:02:29.940Z,7.20
2023-04-27T02:04:31.532Z,7.17
2023-04-27T02:06:33.177Z,7.14
2023-04-27T02:08:35.035Z,7.08
2023-04-27T02:10:36.910Z,7.02
2023-04-27T02:12:39.747Z,7.00
2023-04-27T02:14:41.266Z,6.97
2023-04-27T02:16:42.963Z,7.03
2023-04-27T02:18:44.477Z,6.98
2023-04-27T02:20:45.982Z,6.94
2023-04-27T02:22:47.443Z,6.93
2023-04-27T02:24:48.950Z,6.86
2023-04-27T02:26:50.436Z,6.75
2023-04-27T02:28:53.288Z,6.69
2023-04-27T02:30:55.243Z,6.73
2023-04-27T02:32:58.089Z,6.79
2023-04-27T02:34:59.581Z,6.81
2023-04-27T02:37:01.098Z,6.81
2023-04-27T02:39:02.668Z,6.84
2023-04-27T02:41:04.201Z,6.83
2023-04-27T02:43:05.707Z,7.00
2023-04-27T02:45:09.500Z,6.81
2023-04-27T02:47:11.145Z,6.72
2023-04-27T02:49:12.963Z,6.73
2023-04-27T02:51:14.841Z,6.76
2023-04-27T02:53:16.504Z,6.81
2023-04-27T02:55:18.099Z,6.88
2023-04-27T02:57:19.896Z,6.86
2023-04-27T02:59:21.591Z,7.02
2023-04-27T03:01:24.537Z,7.01
2023-04-27T03:03:26.234Z,7.01
2023-04-27T03:05:28.043Z,7.02
2023-04-27T03:07:29.557Z,7.01
2023-04-27T03:09:31.020Z,6.97
2023-04-27T03:11:32.845Z,6.95
2023-04-27T03:13:34.367Z,6.87
2023-04-27T03:15:35.868Z,6.87
2023-04-27T03:17:38.733Z,6.89
2023-04-27T03:19:40.234Z,6.88
2023-04-27T03:21:41.740Z,6.83
2023-04-27T03:23:43.226Z,6.87
2023-04-27T03:25:44.730Z,6.85
2023-04-27T03:27:46.293Z,6.81
2023-04-27T03:29:51.509Z,6.79
2023-04-27T03:31:53.077Z,6.83
2023-04-27T03:33:55.950Z,6.84
2023-04-27T03:35:57.841Z,6.84
2023-04-27T03:37:59.338Z,6.85
2023-04-27T03:40:00.833Z,6.83
2023-04-27T03:42:02.388Z,6.82
2023-04-27T03:44:04.272Z,6.77
2023-04-27T03:46:06.045Z,6.80
2023-04-27T03:48:07.819Z,6.71
2023-04-27T03:50:10.978Z,6.83
2023-04-27T03:52:12.696Z,6.86
2023-04-27T03:54:14.293Z,6.74
2023-04-27T03:56:16.104Z,6.80
2023-04-27T03:58:17.594Z,6.85
2023-04-27T04:00:19.202Z,6.84
2023-04-27T04:02:20.737Z,6.79
2023-04-27T04:04:22.529Z,6.79
2023-04-27T04:06:25.623Z,6.84
2023-04-27T04:08:27.232Z,6.86
2023-04-27T04:10:28.822Z,6.90
2023-04-27T04:12:30.421Z,6.89
2023-04-27T04:14:31.922Z,6.88
2023-04-27T04:16:33.809Z,6.85
2023-04-27T04:18:36.502Z,6.83
2023-04-27T04:20:37.980Z,6.79
2023-04-27T04:22:40.839Z,6.78
2023-04-27T04:24:42.374Z,6.76
2023-04-27T04:26:43.921Z,6.79
2023-04-27T04:28:45.398Z,6.82
2023-04-27T04:30:47.088Z,6.86
2023-04-27T04:32:48.810Z,6.78
2023-04-27T04:34:50.374Z,6.73
2023-04-27T04:36:51.891Z,6.90
2023-04-27T04:38:54.725Z,6.96
2023-04-27T04:40:56.231Z,6.81
2023-04-27T04:42:57.835Z,6.93
2023-04-27T04:44:59.296Z,6.93
2023-04-27T04:47:00.818Z,6.97
2023-04-27T04:49:02.943Z,7.07
2023-04-27T04:51:05.303Z,7.00
2023-04-27T04:53:06.766Z,6.91
2023-04-27T04:55:10.414Z,7.02
2023-04-27T04:57:11.930Z,7.04
2023-04-27T04:59:13.526Z,6.96
2023-04-27T05:01:15.528Z,6.96
2023-04-27T05:03:17.209Z,6.99
2023-04-27T05:05:18.804Z,7.05
2023-04-27T05:07:24.793Z,7.08
2023-04-27T05:09:26.628Z,7.10
2023-04-27T05:11:29.463Z,7.17
2023-04-27T05:13:30.980Z,7.18
2023-04-27T05:15:32.442Z,7.10
2023-04-27T05:17:33.995Z,7.17
2023-04-27T05:19:35.722Z,7.15
2023-04-27T05:21:37.231Z,7.15
2023-04-27T05:23:38.692Z,7.11
2023-04-27T05:25:40.233Z,7.10
2023-04-27T05:27:43.058Z,7.17
2023-04-27T05:29:44.551Z,7.17
2023-04-27T05:31:46.122Z,7.21
2023-04-27T05:33:47.623Z,7.18
2023-04-27T05:35:49.102Z,7.20
2023-04-27T05:37:50.616Z,7.29
2023-04-27T05:39:52.150Z,7.33
2023-04-27T05:41:53.667Z,7.33
2023-04-27T05:43:56.834Z,7.42
2023-04-27T05:45:58.313Z,7.46
2023-04-27T05:48:00.028Z,7.45
2023-04-27T05:50:01.634Z,7.53
2023-04-27T05:52:03.981Z,7.62
2023-04-27T05:54:05.541Z,7.63
2023-04-27T05:56:07.810Z,7.78
2023-04-27T05:58:09.806Z,7.80
2023-04-27T06:00:14.413Z,7.88
2023-04-27T06:02:16.139Z,7.94
2023-04-27T06:04:18.165Z,7.93
2023-04-27T06:06:19.726Z,8.00
2023-04-27T06:08:22.074Z,7.95
2023-04-27T06:10:23.971Z,8.03
2023-04-27T06:12:25.477Z,8.15
2023-04-27T06:14:28.302Z,8.27
2023-04-27T06:16:31.389Z,8.44
2023-04-27T06:18:33.102Z,8.40
2023-04-27T06:20:34.790Z,8.55
2023-04-27T06:22:36.432Z,8.59
2023-04-27T06:24:37.989Z,8.56
2023-04-27T06:26:39.498Z,8.47
2023-04-27T06:28:40.988Z,8.55
2023-04-27T06:30:42.573Z,8.60
2023-04-27T06:32:45.429Z,8.67
2023-04-27T06:34:47.103Z,8.93
2023-04-27T06:36:48.626Z,8.98
2023-04-27T06:38:50.103Z,8.92
2023-04-27T06:40:52.124Z,9.00
2023-04-27T06:42:53.610Z,9.03
2023-04-27T06:44:55.390Z,9.24
2023-04-27T06:46:56.946Z,9.22
2023-04-27T06:48:59.807Z,9.24
2023-04-27T06:51:01.338Z,9.32
2023-04-27T06:53:02.838Z,9.49
2023-04-27T06:55:05.106Z,9.53
2023-04-27T06:57:06.627Z,9.33
2023-04-27T06:59:08.885Z,9.56
2023-04-27T07:01:10.395Z,9.55
2023-04-27T07:03:12.047Z,9.60
2023-04-27T07:05:15.060Z,9.74
2023-04-27T07:07:16.905Z,9.78
2023-04-27T07:09:26.952Z,9.56
2023-04-27T07:11:29.389Z,9.62
2023-04-27T07:13:30.906Z,9.71
2023-04-27T07:15:32.481Z,9.65
2023-04-27T07:17:34.087Z,9.85
2023-04-27T07:19:36.809Z,9.78
2023-04-27T07:21:39.747Z,9.95
2023-04-27T07:23:41.276Z,10.05
2023-04-27T07:25:42.809Z,10.12
2023-04-27T07:27:44.293Z,10.39
2023-04-27T07:29:45.808Z,10.21
2023-04-27T07:31:47.282Z,9.99
2023-04-27T07:33:49.466Z,10.04
2023-04-27T07:35:50.967Z,10.39
2023-04-27T07:37:53.939Z,10.48
2023-04-27T07:39:55.403Z,10.34
2023-04-27T07:41:56.930Z,10.45
2023-04-27T07:43:58.380Z,10.59
2023-04-27T07:45:59.878Z,10.60
2023-04-27T07:48:01.702Z,10.69
2023-04-27T07:50:03.658Z,10.64
2023-04-27T07:52:05.502Z,10.65
2023-04-27T07:54:08.778Z,10.69
2023-04-27T07:56:10.582Z,10.85
2023-04-27T07:58:12.438Z,10.86
2023-04-27T08:00:14.278Z,10.98
2023-04-27T08:02:19.752Z,11.15
2023-04-27T08:04:22.223Z,11.41
2023-04-27T08:06:24.742Z,11.52
2023-04-27T08:08:26.595Z,11.35
2023-04-27T08:10:29.684Z,11.62
2023-04-27T08:12:32.550Z,11.39
2023-04-27T08:14:34.416Z,11.50
2023-04-27T08:16:35.952Z,11.59
2023-04-27T08:18:37.550Z,11.32
2023-04-27T08:20:39.035Z,11.18
2023-04-27T08:22:41.442Z,11.28
2023-04-27T08:24:42.948Z,11.25
2023-04-27T08:26:45.823Z,11.59
2023-04-27T08:28:47.280Z,11.76
2023-04-27T08:30:48.768Z,12.05
2023-04-27T08:32:50.312Z,12.00
2023-04-27T08:34:51.837Z,11.53
2023-04-27T08:36:53.427Z,11.30
2023-04-27T08:38:54.912Z,11.30
2023-04-27T08:40:59.284Z,11.56
2023-04-27T08:43:03.687Z,11.73
2023-04-27T08:45:08.047Z,11.95
2023-04-27T08:47:10.243Z,11.77
2023-04-27T08:49:12.758Z,12.04
2023-04-27T08:51:16.604Z,12.22
2023-04-27T08:53:18.559Z,12.28
2023-04-27T08:55:20.160Z,12.45
2023-04-27T08:57:22.087Z,12.56
2023-04-27T08:59:24.898Z,12.51
2023-04-27T09:01:26.652Z,12.52
2023-04-27T09:03:28.250Z,12.55
2023-04-27T09:05:29.987Z,12.71
2023-04-27T09:07:31.513Z,12.68
2023-04-27T09:09:33.136Z,12.90
2023-04-27T09:11:36.014Z,13.08
2023-04-27T09:13:38.183Z,13.10
2023-04-27T09:15:48.292Z,13.03
2023-04-27T09:17:54.102Z,13.14
2023-04-27T09:20:04.297Z,13.09
2023-04-27T09:22:07.983Z,13.10
2023-04-27T09:24:10.547Z,13.24
2023-04-27T09:26:20.039Z,13.11
2023-04-27T09:28:21.788Z,12.57
2023-04-27T09:30:24.142Z,12.14
2023-04-27T09:32:27.043Z,12.44
2023-04-27T09:34:38.237Z,12.71
2023-04-27T09:36:40.155Z,12.95
2023-04-27T09:38:42.393Z,13.18
2023-04-27T09:40:43.993Z,13.19
2023-04-27T09:42:46.120Z,13.42
2023-04-27T09:44:48.135Z,13.47
2023-04-27T09:46:52.786Z,13.44
2023-04-27T09:48:56.546Z,13.00
2023-04-27T09:50:57.929Z,13.14
2023-04-27T09:52:59.427Z,13.27
2023-04-27T09:55:03.544Z,13.50
2023-04-27T09:57:19.054Z,13.71
2023-04-27T09:59:41.446Z,13.94
2023-04-27T10:01:47.111Z,13.77
2023-04-27T10:04:04.237Z,13.20
2023-04-27T10:06:46.832Z,13.06
2023-04-27T10:08:50.524Z,13.49
2023-04-27T10:10:53.329Z,13.52
2023-04-27T10:13:00.908Z,13.73
2023-04-27T10:15:13.092Z,13.97
2023-04-27T10:17:15.184Z,13.83
2023-04-27T10:19:18.625Z,13.72
2023-04-27T10:21:20.572Z,13.61
2023-04-27T10:23:25.850Z,13.50
2023-04-27T10:25:29.593Z,13.51
2023-04-27T10:27:39.134Z,13.20
2023-04-27T10:29:42.776Z,13.12
2023-04-27T10:31:44.968Z,13.18
2023-04-27T10:33:47.182Z,13.37
2023-04-27T10:35:57.313Z,13.08
2023-04-27T10:38:05.996Z,13.26
2023-04-27T10:40:10.143Z,13.54
2023-04-27T10:42:11.982Z,13.74
2023-04-27T10:44:14.035Z,13.81
2023-04-27T10:46:16.411Z,13.98
2023-04-27T10:48:17.994Z,13.88
2023-04-27T10:50:19.564Z,13.52
2023-04-27T10:52:22.929Z,13.65
2023-04-27T10:54:28.049Z,13.25
2023-04-27T10:56:29.587Z,13.36
2023-04-27T10:58:41.488Z,13.18
2023-04-27T11:00:49.470Z,13.81
2023-04-27T11:02:51.751Z,13.77
2023-04-27T11:04:53.332Z,14.03
2023-04-27T11:06:54.878Z,14.35
2023-04-27T11:08:57.757Z,14.51
2023-04-27T11:10:59.256Z,14.18
2023-04-27T11:13:07.496Z,13.97
2023-04-27T11:15:09.962Z,14.20
2023-04-27T11:17:11.617Z,14.07
2023-04-27T11:19:14.087Z,14.38
2023-04-27T11:21:17.520Z,14.22
2023-04-27T11:23:26.304Z,14.37
2023-04-27T11:25:29.459Z,14.40
2023-04-27T11:27:37.818Z,14.24
2023-04-27T11:29:39.797Z,14.31
2023-04-27T11:31:42.816Z,14.17
2023-04-27T11:33:48.299Z,14.63
2023-04-27T11:35:49.856Z,15.01
2023-04-27T11:37:57.529Z,15.13
2023-04-27T11:40:00.570Z,14.89
2023-04-27T11:42:17.295Z,14.83
2023-04-27T11:44:19.077Z,14.85
2023-04-27T11:46:20.735Z,14.65
2023-04-27T11:48:23.554Z,15.01
2023-04-27T11:50:25.774Z,15.09
2023-04-27T11:52:28.555Z,15.41
2023-04-27T11:54:30.114Z,15.68
2023-04-27T11:56:35.728Z,15.87
2023-04-27T11:58:39.790Z,15.66
2023-04-27T12:00:41.584Z,15.91
2023-04-27T12:02:44.140Z,16.01
2023-04-27T12:04:46.194Z,16.21
2023-04-27T12:06:48.024Z,16.17
2023-04-27T12:08:49.525Z,16.27
2023-04-27T12:10:51.515Z,16.35
2023-04-27T12:12:53.312Z,16.33
2023-04-27T12:14:56.302Z,16.49
2023-04-27T12:16:57.866Z,16.38
2023-04-27T12:18:59.342Z,16.16
2023-04-27T12:21:03.001Z,16.31
2023-04-27T12:23:05.064Z,15.76
2023-04-27T12:25:07.125Z,16.22
2023-04-27T12:27:08.712Z,16.46
2023-04-27T12:29:10.226Z,16.64
2023-04-27T12:31:15.763Z,16.83
2023-04-27T12:33:17.798Z,16.52
2023-04-27T12:35:19.526Z,16.38
2023-04-27T12:37:20.987Z,16.51
2023-04-27T12:39:23.768Z,16.72
2023-04-27T12:41:25.365Z,16.74
2023-04-27T12:43:27.026Z,16.26
2023-04-27T12:45:28.546Z,16.34
2023-04-27T12:49:35.848Z,16.31
2023-04-27T12:51:37.949Z,15.41
2023-04-27T12:53:39.490Z,15.22
2023-04-27T12:55:41.027Z,15.28
2023-04-27T12:57:42.520Z,15.33
2023-04-27T12:59:44.143Z,15.39
2023-04-27T13:01:45.788Z,15.66
2023-04-27T13:03:48.925Z,15.42
2023-04-27T13:05:50.461Z,15.70
2023-04-27T13:07:52.245Z,16.00
2023-04-27T13:09:54.021Z,16.13
2023-04-27T13:11:55.556Z,16.31
2023-04-27T13:13:57.091Z,15.92
2023-04-27T13:15:58.611Z,16.22
2023-04-27T13:18:00.144Z,16.31
2023-04-27T13:20:03.166Z,16.48
2023-04-27T13:22:04.655Z,16.70
2023-04-27T13:24:07.391Z,16.34
2023-04-27T13:26:09.260Z,16.75
2023-04-27T13:28:10.798Z,15.82
2023-04-27T13:30:12.795Z,15.78
2023-04-27T13:32:14.276Z,16.25
2023-04-27T13:34:16.375Z,16.63
2023-04-27T13:36:19.537Z,16.65
2023-04-27T13:38:21.334Z,16.65
2023-04-27T13:40:23.037Z,16.59
2023-04-27T13:42:24.499Z,16.51
2023-04-27T13:44:26.165Z,16.80
2023-04-27T13:46:27.797Z,16.73
2023-04-27T13:48:30.128Z,16.37
2023-04-27T13:50:31.698Z,16.39
2023-04-27T13:52:35.151Z,17.03
2023-04-27T13:54:36.633Z,16.91
2023-04-27T13:56:38.101Z,17.26
2023-04-27T13:58:39.652Z,17.07
2023-04-27T14:00:41.171Z,17.11
2023-04-27T14:02:42.976Z,17.04
2023-04-27T14:04:44.601Z,17.26
2023-04-27T14:06:46.110Z,17.24
2023-04-27T14:08:48.923Z,16.84
2023-04-27T14:10:50.481Z,16.93
2023-04-27T14:12:52.085Z,17.39
2023-04-27T14:14:53.535Z,17.52
2023-04-27T14:16:55.279Z,17.73
2023-04-27T14:18:57.028Z,17.77
2023-04-27T14:20:58.582Z,18.02
2023-04-27T14:23:00.547Z,17.94
2023-04-27T14:25:03.700Z,18.29
2023-04-27T14:27:06.390Z,18.03
2023-04-27T14:29:07.942Z,17.51
2023-04-27T14:31:09.612Z,18.13
2023-04-27T14:33:11.226Z,18.25
2023-04-27T14:35:12.794Z,18.74
2023-04-27T14:37:14.618Z,18.73
2023-04-27T14:39:16.849Z,18.96
2023-04-27T14:41:20.170Z,18.93
2023-04-27T14:43:21.630Z,18.43
2023-04-27T14:45:24.230Z,18.25
2023-04-27T14:47:26.220Z,17.12
2023-04-27T14:49:27.760Z,17.06
2023-04-27T14:51:29.382Z,16.98
2023-04-27T14:53:30.889Z,16.71
2023-04-27T14:55:33.619Z,16.52
2023-04-27T14:57:36.562Z,16.64
2023-04-27T14:59:38.052Z,16.96
2023-04-27T15:01:39.587Z,17.57
2023-04-27T15:03:41.452Z,17.92
2023-04-27T15:05:43.372Z,17.59
2023-04-27T15:07:44.890Z,17.22
2023-04-27T15:09:46.850Z,16.58
2023-04-27T15:11:48.355Z,17.13
2023-04-27T15:13:51.796Z,17.40
2023-04-27T15:15:54.426Z,17.05
2023-04-27T15:17:56.959Z,16.79
2023-04-27T15:19:58.560Z,16.46
2023-04-27T15:22:00.073Z,16.68
2023-04-27T15:24:03.950Z,16.19
2023-04-27T15:26:05.540Z,16.59
2023-04-27T15:28:07.068Z,17.48
2023-04-27T15:30:10.710Z,17.58
2023-04-27T15:32:13.084Z,17.82
2023-04-27T15:34:15.386Z,17.16
2023-04-27T15:36:16.950Z,17.08
2023-04-27T15:38:19.663Z,16.87
2023-04-27T15:40:21.453Z,16.95
2023-04-27T15:42:23.039Z,17.00
2023-04-27T15:44:25.113Z,16.68
2023-04-27T15:46:28.781Z,16.89
2023-04-27T15:48:30.102Z,17.26
2023-04-27T15:50:32.574Z,17.26
2023-04-27T15:52:34.320Z,17.82
2023-04-27T15:54:35.777Z,17.85
2023-04-27T15:56:38.132Z,17.26
2023-04-27T15:58:40.351Z,17.12
2023-04-27T16:00:41.987Z,16.88
2023-04-27T16:02:44.943Z,17.01
2023-04-27T16:04:48.533Z,17.30
2023-04-27T16:06:50.029Z,17.45
2023-04-27T16:08:51.514Z,17.08
2023-04-27T16:10:53.072Z,17.80
2023-04-27T16:12:56.352Z,18.32
2023-04-27T16:14:57.854Z,18.29
2023-04-27T16:16:59.472Z,18.17
2023-04-27T16:21:29.234Z,19.26
2023-04-27T16:23:30.741Z,19.26
2023-04-27T16:25:32.327Z,19.49
2023-04-27T16:27:33.789Z,19.52
2023-04-27T16:29:35.298Z,19.17
2023-04-27T16:31:36.822Z,18.55
2023-04-27T16:33:38.306Z,18.13
2023-04-27T16:35:41.181Z,17.54
2023-04-27T16:37:42.695Z,17.33
2023-04-27T16:39:44.178Z,17.14
2023-04-27T16:41:45.743Z,16.89
2023-04-27T16:43:47.372Z,17.07
2023-04-27T16:45:48.830Z,17.42
2023-04-27T16:47:50.341Z,17.62
2023-04-27T16:49:51.929Z,17.69
2023-04-27T16:51:54.770Z,18.10
2023-04-27T16:53:57.207Z,18.50
2023-04-27T16:55:59.562Z,18.96
2023-04-27T16:58:01.222Z,19.20
2023-04-27T17:00:03.127Z,18.75
2023-04-27T17:02:20.896Z,18.23
2023-04-27T17:04:25.907Z,18.07
2023-04-27T17:06:27.890Z,17.86
2023-04-27T17:08:30.718Z,17.58
2023-04-27T17:10:32.615Z,17.50
2023-04-27T17:12:35.111Z,17.63
2023-04-27T17:14:36.775Z,17.58
2023-04-27T17:16:38.268Z,17.34
2023-04-27T17:18:39.835Z,17.51
2023-04-27T17:20:42.380Z,17.53
2023-04-27T17:22:43.940Z,17.13
2023-04-27T17:24:46.766Z,17.69
2023-04-27T17:26:48.528Z,17.77
2023-04-27T17:28:50.879Z,18.03
2023-04-27T17:30:52.384Z,18.29
2023-04-27T17:32:54.060Z,17.91
2023-04-27T17:34:55.565Z,18.26
2023-04-27T17:36:57.095Z,18.17
2023-04-27T17:38:58.588Z,17.97
2023-04-27T17:41:01.466Z,18.64
2023-04-27T17:43:03.041Z,18.67
2023-04-27T17:45:07.386Z,18.71
2023-04-27T17:47:09.279Z,18.63
2023-04-27T17:49:10.804Z,18.53
2023-04-27T17:51:12.341Z,18.21
2023-04-27T17:53:13.802Z,18.02
2023-04-27T17:55:15.402Z,17.91
2023-04-27T17:57:18.437Z,17.87
2023-04-27T17:59:19.935Z,17.92
2023-04-27T18:01:21.478Z,17.96
2023-04-27T18:03:23.250Z,17.93
2023-04-27T18:05:25.005Z,17.84
2023-04-27T18:07:26.641Z,17.60
2023-04-27T18:09:29.500Z,17.04
2023-04-27T18:11:32.869Z,16.81
2023-04-27T18:13:35.729Z,16.51
2023-04-27T18:15:37.504Z,16.30
2023-04-27T18:17:39.040Z,16.03
2023-04-27T18:19:40.576Z,15.75
2023-04-27T18:21:42.274Z,15.65
2023-04-27T18:23:43.809Z,15.49
2023-04-27T18:25:45.550Z,15.22
2023-04-27T18:27:47.018Z,15.18
2023-04-27T18:29:50.420Z,15.03
2023-04-27T18:31:52.353Z,15.13
2023-04-27T18:33:54.216Z,15.14
2023-04-27T18:35:55.678Z,15.35
2023-04-27T18:37:57.190Z,15.27
2023-04-27T18:39:59.638Z,15.42
2023-04-27T18:42:04.220Z,15.38
2023-04-27T18:44:06.067Z,15.23
2023-04-27T18:46:09.267Z,15.10
2023-04-27T18:48:10.847Z,14.92
2023-04-27T18:50:12.350Z,14.88
2023-04-27T18:52:13.860Z,14.92
2023-04-27T18:54:15.445Z,14.72
2023-04-27T18:56:17.269Z,14.46
2023-04-27T18:58:21.489Z,14.40
2023-04-27T19:00:23.233Z,14.21
2023-04-27T19:02:26.190Z,14.08
2023-04-27T19:04:27.887Z,13.92
2023-04-27T19:06:29.531Z,13.92
2023-04-27T19:08:33.054Z,13.88
2023-04-27T19:10:34.513Z,13.78
2023-04-27T19:12:36.065Z,13.81
2023-04-27T19:14:37.606Z,13.68
2023-04-27T19:16:39.146Z,13.57
2023-04-27T19:18:42.026Z,13.54
2023-04-27T19:20:43.694Z,13.55
2023-04-27T19:22:45.271Z,13.58
2023-04-27T19:24:47.176Z,13.54
2023-04-27T19:26:48.714Z,13.54
2023-04-27T19:28:50.467Z,13.55
2023-04-27T19:30:51.989Z,13.50
2023-04-27T19:32:53.600Z,13.40
2023-04-27T19:34:57.605Z,13.30
2023-04-27T19:36:59.104Z,13.31
2023-04-27T19:39:00.668Z,13.27
2023-04-27T19:41:02.142Z,13.21
2023-04-27T19:43:03.743Z,13.22
2023-04-27T19:45:06.326Z,13.17
2023-04-27T19:47:08.044Z,13.21
2023-04-27T19:49:09.564Z,13.14
2023-04-27T19:51:12.613Z,13.15
2023-04-27T19:53:14.098Z,13.09
2023-04-27T19:55:15.924Z,13.12
2023-04-27T19:57:17.527Z,13.04
2023-04-27T19:59:19.006Z,13.04
2023-04-27T20:01:20.640Z,12.99
2023-04-27T20:03:22.371Z,12.93
2023-04-27T20:05:24.593Z,12.89
2023-04-27T20:07:27.838Z,12.82
2023-04-27T20:09:29.326Z,12.83
2023-04-27T20:11:30.828Z,12.78
2023-04-27T20:13:32.616Z,12.80
2023-04-27T20:15:34.150Z,12.78
2023-04-27T20:17:35.741Z,12.76
2023-04-27T20:19:37.310Z,12.76
2023-04-27T20:21:38.832Z,12.74
2023-04-27T20:23:41.688Z,12.70
2023-04-27T20:25:43.176Z,12.62
2023-04-27T20:27:44.786Z,12.59
2023-04-27T20:29:46.273Z,12.56
2023-04-27T20:31:47.933Z,12.55
2023-04-27T20:33:49.433Z,12.55
2023-04-27T20:35:50.948Z,12.51
2023-04-27T20:37:52.456Z,12.50
2023-04-27T20:39:55.284Z,12.49
2023-04-27T20:41:56.862Z,12.46
2023-04-27T20:43:58.329Z,12.41
2023-04-27T20:45:59.876Z,12.40
2023-04-27T20:48:01.602Z,12.39
2023-04-27T20:50:03.661Z,12.36
2023-04-27T20:52:05.258Z,12.39
2023-04-27T20:54:06.913Z,12.33
2023-04-27T20:56:09.782Z,12.34
2023-04-27T20:58:11.259Z,12.33
2023-04-27T21:00:13.755Z,12.22
2023-04-27T21:02:15.272Z,12.21
2023-04-27T21:04:17.088Z,12.22
2023-04-27T21:06:18.921Z,12.16
2023-04-27T21:08:20.380Z,12.17
2023-04-27T21:10:21.894Z,12.17
2023-04-27T21:12:25.108Z,12.15
2023-04-27T21:14:26.610Z,12.18
2023-04-27T21:16:28.184Z,12.17
2023-04-27T21:18:30.922Z,12.16
2023-04-27T21:20:32.627Z,12.19
2023-04-27T21:22:34.117Z,12.10
2023-04-27T21:24:35.651Z,12.10
2023-04-27T21:26:37.179Z,12.09
2023-04-27T21:28:40.481Z,12.09
2023-04-27T21:30:42.012Z,12.04
2023-04-27T21:32:43.713Z,11.98
2023-04-27T21:34:45.263Z,11.92
2023-04-27T21:36:46.780Z,11.89
2023-04-27T21:38:48.253Z,11.90
2023-04-27T21:40:49.777Z,11.86
2023-04-27T21:42:51.577Z,11.88
2023-04-27T21:44:55.970Z,11.91
2023-04-27T21:46:57.539Z,11.87
2023-04-27T21:48:59.009Z,11.86
2023-04-27T21:51:00.708Z,11.84
2023-04-27T21:53:02.214Z,11.82
2023-04-27T21:55:04.034Z,11.73
2023-04-27T21:57:05.565Z,11.68
2023-04-27T21:59:07.065Z,11.70
2023-04-27T22:01:10.193Z,11.54
2023-04-27T22:03:11.879Z,11.58
2023-04-27T22:05:13.664Z,11.54
2023-04-27T22:07:15.516Z,11.49
2023-04-27T22:09:24.689Z,11.38
2023-04-27T22:14:04.193Z,11.40
2023-04-27T22:16:06.602Z,11.38
2023-04-27T22:18:10.317Z,11.28
2023-04-27T22:20:15.558Z,11.38
2023-04-27T22:22:21.433Z,11.31
2023-04-27T22:24:23.621Z,11.27
2023-04-27T22:26:28.619Z,11.24
2023-04-27T22:28:35.401Z,11.21
2023-04-27T22:30:42.779Z,11.16
2023-04-27T22:32:45.064Z,11.16
2023-04-27T22:34:49.247Z,11.14
2023-04-27T22:37:01.275Z,11.14
2023-04-27T22:39:17.609Z,11.13
2023-04-27T22:41:20.525Z,11.17
2023-04-27T22:43:22.867Z,11.14
2023-04-27T22:45:25.584Z,11.16
2023-04-27T22:47:29.952Z,11.20
2023-04-27T22:49:32.434Z,11.13
2023-04-27T22:51:42.050Z,11.11
2023-04-27T22:53:44.605Z,11.01
2023-04-27T22:55:47.539Z,11.01
2023-04-27T22:57:49.076Z,10.99
2023-04-27T22:59:50.550Z,10.95
2023-04-27T23:01:52.310Z,10.94
2023-04-27T23:03:53.933Z,10.87
2023-04-27T23:05:55.493Z,10.90
2023-04-27T23:07:58.339Z,10.88
2023-04-27T23:09:59.954Z,11.03
2023-04-27T23:12:01.452Z,11.02
2023-04-27T23:14:03.561Z,10.98
2023-04-27T23:16:05.997Z,11.03
2023-04-27T23:18:07.484Z,11.00
2023-04-27T23:20:17.291Z,11.02
2023-04-27T23:22:29.464Z,11.09
2023-04-27T23:24:32.284Z,11.05
2023-04-27T23:26:33.736Z,11.13
2023-04-27T23:28:35.249Z,11.11
2023-04-27T23:30:36.751Z,11.05
2023-04-27T23:32:38.398Z,11.05
2023-04-27T23:34:39.850Z,11.06
2023-04-27T23:36:41.441Z,11.08
2023-04-27T23:38:42.995Z,11.07
2023-04-27T23:40:45.811Z,11.13
2023-04-27T23:42:48.196Z,11.11
2023-04-27T23:44:50.687Z,10.96
2023-04-27T23:46:52.160Z,10.94
2023-04-27T23:48:53.618Z,10.94
2023-04-27T23:51:04.660Z,10.95
2023-04-27T23:53:06.198Z,10.94
2023-04-27T23:55:08.661Z,10.98
2023-04-27T23:57:11.854Z,10.95
2023-04-27T23:59:13.631Z,10.99
